Warner Springs, CA (92086)

12:52 PM PDT on July 28, 2017 (GMT -0700)
Los Tules | | Change Station

Elev 3219 ft 33.28 °N, 116.63 °W | Updated 5 seconds ago

Clear
Clear
95.0 °F
Feels Like 94 °F
N
12.5
Wind Variable Wind from SSE

Today
High -- | Low -- °F
--% Chance of Precip.
Yesterday
High -- | Low -- °F
Precip. -- in
Pressure 29.91 in
Visibility 10.0 miles
Clouds Clear
Heat Index 94 °F
Dew Point 57 °F
Humidity 28%
Rainfall 0.00 in
Snow Depth Not available.
5:56 AM 7:48 PM
Waxing Crescent, 32% visible
METAR KRNM 281853Z 25007KT 10SM CLR 31/19 A2996 RMK AO2 SLP127 T03110189
Pressure 29.91 in
Visibility 10.0 miles
Clouds Clear
Heat Index 94 °F
Dew Point 57 °F
Humidity 28%
Rainfall 0.00 in
Snow Depth Not available.
5:56 AM 7:48 PM
Waxing Crescent, 32% visible
METAR KRNM 281853Z 25007KT 10SM CLR 31/19 A2996 RMK AO2 SLP127 T03110189

Get Severe Weather Alerts

Thanks for signing up!

Be on the lookout for a verification email in your inbox.

You'll start receiving the daily forecast at 6 AM.

×

10-Day Weather Forecast

Almanac

Astronomy

Jul. 28, 2017 Rise Set
Actual Time
Civil Twilight
Nautical Twilight
Astronomical Twilight
Moon
Length of Visible Light
Length of Day
Tomorrow will be .
, % of the Moon is Illuminated

Today's Extremes

State Highs State Lows

Community

WunderPhotos

Category 6

Welcome to Category 6. This is the collective home for Weather Underground's featured writeups by Dr. Jeff Masters (right), Bob Henson (left), Chris Burt, and other regular contributors.

Nearby

Air Quality

  Air Quality AQ Index Pollutant
Not available.

Snow Depth

Station Depth Elevation

Earthquake Activity

City Distance Mag. Time & Date
Minimum magnitude displayed is 2.5.

Coastal Water Temperatures

Place Temperature

Stations

Nearby Weather Stations

Station Location Temp. Windchill Dew Point Humidity Wind Precip. Elev Updated Type
                   

Watches & Warnings

There are currently no watches in effect.